sensor_id;sensor_type;location;lat;lon;timestamp;P1;durP1;ratioP1;P2;durP2;ratioP2
15271;SDS011;7737;51.578;7.268;2023-07-31T00:02:13;4.05;;;2.58;;
15271;SDS011;7737;51.578;7.268;2023-07-31T00:04:39;3.40;;;2.30;;
15271;SDS011;7737;51.578;7.268;2023-07-31T00:07:06;2.15;;;1.95;;
15271;SDS011;7737;51.578;7.268;2023-07-31T00:09:32;1.90;;;1.40;;
15271;SDS011;7737;51.578;7.268;2023-07-31T00:12:00;3.20;;;1.42;;
15271;SDS011;7737;51.578;7.268;2023-07-31T00:14:27;3.30;;;1.38;;
15271;SDS011;7737;51.578;7.268;2023-07-31T00:16:53;1.50;;;1.33;;
15271;SDS011;7737;51.578;7.268;2023-07-31T00:19:20;2.13;;;1.50;;
15271;SDS011;7737;51.578;7.268;2023-07-31T00:21:47;1.80;;;1.40;;
15271;SDS011;7737;51.578;7.268;2023-07-31T00:24:13;1.88;;;1.40;;
15271;SDS011;7737;51.578;7.268;2023-07-31T00:26:40;2.72;;;1.50;;
15271;SDS011;7737;51.578;7.268;2023-07-31T00:29:08;2.28;;;2.00;;
15271;SDS011;7737;51.578;7.268;2023-07-31T00:31:34;2.70;;;2.20;;
15271;SDS011;7737;51.578;7.268;2023-07-31T00:34:01;3.55;;;3.00;;
15271;SDS011;7737;51.578;7.268;2023-07-31T00:36:27;4.72;;;3.20;;
15271;SDS011;7737;51.578;7.268;2023-07-31T00:38:54;6.68;;;4.50;;
15271;SDS011;7737;51.578;7.268;2023-07-31T00:41:20;6.80;;;4.95;;
15271;SDS011;7737;51.578;7.268;2023-07-31T00:43:47;6.28;;;4.68;;
15271;SDS011;7737;51.578;7.268;2023-07-31T00:46:15;7.68;;;5.68;;
15271;SDS011;7737;51.578;7.268;2023-07-31T00:48:41;9.23;;;5.22;;
15271;SDS011;7737;51.578;7.268;2023-07-31T00:51:08;10.85;;;5.50;;
15271;SDS011;7737;51.578;7.268;2023-07-31T00:53:35;9.43;;;5.57;;
15271;SDS011;7737;51.578;7.268;2023-07-31T00:56:02;10.25;;;5.57;;
15271;SDS011;7737;51.578;7.268;2023-07-31T00:58:29;10.60;;;5.70;;
15271;SDS011;7737;51.578;7.268;2023-07-31T01:00:56;11.30;;;5.53;;
15271;SDS011;7737;51.578;7.268;2023-07-31T01:03:24;8.75;;;6.03;;
15271;SDS011;7737;51.578;7.268;2023-07-31T01:05:53;10.18;;;6.50;;
15271;SDS011;7737;51.578;7.268;2023-07-31T01:08:30;12.27;;;6.60;;
15271;SDS011;7737;51.578;7.268;2023-07-31T01:11:00;11.23;;;6.15;;
15271;SDS011;7737;51.578;7.268;2023-07-31T01:13:32;11.43;;;6.50;;
15271;SDS011;7737;51.578;7.268;2023-07-31T01:15:59;11.43;;;6.32;;
15271;SDS011;7737;51.578;7.268;2023-07-31T01:18:27;12.93;;;6.75;;
15271;SDS011;7737;51.578;7.268;2023-07-31T01:20:54;12.50;;;6.05;;
15271;SDS011;7737;51.578;7.268;2023-07-31T01:23:35;12.20;;;5.95;;
15271;SDS011;7737;51.578;7.268;2023-07-31T01:26:19;13.02;;;6.25;;
15271;SDS011;7737;51.578;7.268;2023-07-31T01:28:50;13.25;;;6.05;;
15271;SDS011;7737;51.578;7.268;2023-07-31T01:31:23;13.65;;;6.03;;
15271;SDS011;7737;51.578;7.268;2023-07-31T01:33:51;14.00;;;6.03;;
15271;SDS011;7737;51.578;7.268;2023-07-31T01:36:19;13.88;;;6.38;;
15271;SDS011;7737;51.578;7.268;2023-07-31T01:38:46;13.23;;;6.38;;
15271;SDS011;7737;51.578;7.268;2023-07-31T01:41:13;11.48;;;5.85;;
15271;SDS011;7737;51.578;7.268;2023-07-31T01:43:41;13.95;;;6.07;;
15271;SDS011;7737;51.578;7.268;2023-07-31T01:46:07;12.48;;;6.03;;
15271;SDS011;7737;51.578;7.268;2023-07-31T01:48:34;12.75;;;6.30;;
15271;SDS011;7737;51.578;7.268;2023-07-31T01:51:02;12.95;;;5.90;;
15271;SDS011;7737;51.578;7.268;2023-07-31T01:53:29;11.60;;;5.82;;
15271;SDS011;7737;51.578;7.268;2023-07-31T01:55:56;9.95;;;5.50;;
15271;SDS011;7737;51.578;7.268;2023-07-31T01:58:23;12.55;;;5.53;;
15271;SDS011;7737;51.578;7.268;2023-07-31T02:00:51;14.05;;;5.72;;
15271;SDS011;7737;51.578;7.268;2023-07-31T02:03:17;11.57;;;5.35;;
15271;SDS011;7737;51.578;7.268;2023-07-31T02:05:44;9.85;;;5.65;;
15271;SDS011;7737;51.578;7.268;2023-07-31T02:08:11;9.95;;;5.20;;
15271;SDS011;7737;51.578;7.268;2023-07-31T02:10:38;12.90;;;5.43;;
15271;SDS011;7737;51.578;7.268;2023-07-31T02:13:04;9.63;;;5.28;;
15271;SDS011;7737;51.578;7.268;2023-07-31T02:15:31;12.45;;;5.38;;
15271;SDS011;7737;51.578;7.268;2023-07-31T02:17:59;10.32;;;5.38;;
15271;SDS011;7737;51.578;7.268;2023-07-31T02:20:25;13.32;;;5.60;;
15271;SDS011;7737;51.578;7.268;2023-07-31T02:22:52;12.15;;;5.25;;
15271;SDS011;7737;51.578;7.268;2023-07-31T02:25:18;10.80;;;4.88;;
15271;SDS011;7737;51.578;7.268;2023-07-31T02:27:45;9.15;;;5.40;;
15271;SDS011;7737;51.578;7.268;2023-07-31T02:30:12;14.13;;;5.38;;
15271;SDS011;7737;51.578;7.268;2023-07-31T02:32:38;11.43;;;4.90;;
15271;SDS011;7737;51.578;7.268;2023-07-31T02:35:06;10.05;;;5.00;;
15271;SDS011;7737;51.578;7.268;2023-07-31T02:37:33;9.50;;;4.80;;
15271;SDS011;7737;51.578;7.268;2023-07-31T02:40:00;10.48;;;5.25;;
15271;SDS011;7737;51.578;7.268;2023-07-31T02:42:26;9.27;;;4.65;;
15271;SDS011;7737;51.578;7.268;2023-07-31T02:44:53;11.18;;;4.97;;
15271;SDS011;7737;51.578;7.268;2023-07-31T02:47:21;9.52;;;4.55;;
15271;SDS011;7737;51.578;7.268;2023-07-31T02:49:47;9.70;;;4.50;;
15271;SDS011;7737;51.578;7.268;2023-07-31T02:52:15;10.85;;;4.97;;
15271;SDS011;7737;51.578;7.268;2023-07-31T02:54:42;8.77;;;4.40;;
15271;SDS011;7737;51.578;7.268;2023-07-31T02:57:08;10.15;;;4.45;;
15271;SDS011;7737;51.578;7.268;2023-07-31T02:59:35;10.77;;;4.40;;
15271;SDS011;7737;51.578;7.268;2023-07-31T03:02:01;10.13;;;4.65;;
15271;SDS011;7737;51.578;7.268;2023-07-31T03:04:29;11.35;;;4.95;;
15271;SDS011;7737;51.578;7.268;2023-07-31T03:06:55;11.30;;;4.80;;
15271;SDS011;7737;51.578;7.268;2023-07-31T03:09:23;10.93;;;4.88;;
15271;SDS011;7737;51.578;7.268;2023-07-31T03:11:49;10.07;;;4.70;;
15271;SDS011;7737;51.578;7.268;2023-07-31T03:14:16;10.73;;;5.30;;
15271;SDS011;7737;51.578;7.268;2023-07-31T03:16:42;10.13;;;4.35;;
15271;SDS011;7737;51.578;7.268;2023-07-31T03:19:09;8.45;;;4.93;;
15271;SDS011;7737;51.578;7.268;2023-07-31T03:21:35;8.65;;;4.70;;
15271;SDS011;7737;51.578;7.268;2023-07-31T03:24:02;13.05;;;4.90;;
15271;SDS011;7737;51.578;7.268;2023-07-31T03:26:32;9.45;;;4.78;;
15271;SDS011;7737;51.578;7.268;2023-07-31T03:28:58;11.65;;;5.28;;
15271;SDS011;7737;51.578;7.268;2023-07-31T03:31:25;9.98;;;4.80;;
15271;SDS011;7737;51.578;7.268;2023-07-31T03:33:51;11.30;;;4.60;;
15271;SDS011;7737;51.578;7.268;2023-07-31T03:36:18;13.50;;;5.47;;
15271;SDS011;7737;51.578;7.268;2023-07-31T03:38:45;12.57;;;4.90;;
15271;SDS011;7737;51.578;7.268;2023-07-31T03:41:12;12.10;;;5.55;;
15271;SDS011;7737;51.578;7.268;2023-07-31T03:43:40;9.23;;;4.53;;
15271;SDS011;7737;51.578;7.268;2023-07-31T03:46:06;12.65;;;5.10;;
15271;SDS011;7737;51.578;7.268;2023-07-31T03:48:33;11.85;;;5.43;;
15271;SDS011;7737;51.578;7.268;2023-07-31T03:50:59;9.40;;;4.82;;
15271;SDS011;7737;51.578;7.268;2023-07-31T03:53:26;10.45;;;5.20;;
15271;SDS011;7737;51.578;7.268;2023-07-31T03:55:52;10.50;;;5.13;;
15271;SDS011;7737;51.578;7.268;2023-07-31T03:58:19;11.60;;;4.75;;
15271;SDS011;7737;51.578;7.268;2023-07-31T04:00:47;10.55;;;5.10;;
15271;SDS011;7737;51.578;7.268;2023-07-31T04:03:13;10.45;;;4.75;;
15271;SDS011;7737;51.578;7.268;2023-07-31T04:05:40;10.48;;;5.30;;
15271;SDS011;7737;51.578;7.268;2023-07-31T04:08:06;8.88;;;4.68;;
15271;SDS011;7737;51.578;7.268;2023-07-31T04:10:33;10.38;;;4.75;;
15271;SDS011;7737;51.578;7.268;2023-07-31T04:12:59;10.48;;;4.70;;
15271;SDS011;7737;51.578;7.268;2023-07-31T04:15:26;9.88;;;4.43;;
15271;SDS011;7737;51.578;7.268;2023-07-31T04:17:54;11.30;;;5.03;;
15271;SDS011;7737;51.578;7.268;2023-07-31T04:20:21;9.40;;;4.40;;
15271;SDS011;7737;51.578;7.268;2023-07-31T04:22:47;8.73;;;4.20;;
15271;SDS011;7737;51.578;7.268;2023-07-31T04:25:14;10.15;;;4.93;;
15271;SDS011;7737;51.578;7.268;2023-07-31T04:27:41;9.88;;;4.70;;
15271;SDS011;7737;51.578;7.268;2023-07-31T04:30:07;10.20;;;4.72;;
15271;SDS011;7737;51.578;7.268;2023-07-31T04:32:34;9.57;;;5.00;;
15271;SDS011;7737;51.578;7.268;2023-07-31T04:35:03;9.57;;;4.72;;
15271;SDS011;7737;51.578;7.268;2023-07-31T04:37:29;10.60;;;5.25;;
15271;SDS011;7737;51.578;7.268;2023-07-31T04:39:56;10.75;;;4.70;;
15271;SDS011;7737;51.578;7.268;2023-07-31T04:42:23;10.68;;;4.90;;
15271;SDS011;7737;51.578;7.268;2023-07-31T04:44:50;7.72;;;4.47;;
15271;SDS011;7737;51.578;7.268;2023-07-31T04:47:18;13.25;;;5.10;;
15271;SDS011;7737;51.578;7.268;2023-07-31T04:49:44;9.63;;;4.32;;
15271;SDS011;7737;51.578;7.268;2023-07-31T04:52:12;8.40;;;4.82;;
15271;SDS011;7737;51.578;7.268;2023-07-31T04:54:38;12.15;;;5.10;;
15271;SDS011;7737;51.578;7.268;2023-07-31T04:57:05;10.45;;;4.82;;
15271;SDS011;7737;51.578;7.268;2023-07-31T04:59:32;11.68;;;4.35;;
15271;SDS011;7737;51.578;7.268;2023-07-31T05:01:59;10.15;;;4.90;;
15271;SDS011;7737;51.578;7.268;2023-07-31T05:04:25;9.27;;;4.85;;
15271;SDS011;7737;51.578;7.268;2023-07-31T05:06:52;10.85;;;5.03;;
15271;SDS011;7737;51.578;7.268;2023-07-31T05:09:20;10.68;;;4.93;;
15271;SDS011;7737;51.578;7.268;2023-07-31T05:11:46;9.35;;;4.78;;
15271;SDS011;7737;51.578;7.268;2023-07-31T05:14:13;13.30;;;5.10;;
15271;SDS011;7737;51.578;7.268;2023-07-31T05:16:40;11.77;;;5.10;;
15271;SDS011;7737;51.578;7.268;2023-07-31T05:19:07;10.85;;;4.60;;
15271;SDS011;7737;51.578;7.268;2023-07-31T05:21:33;10.27;;;4.65;;
15271;SDS011;7737;51.578;7.268;2023-07-31T05:24:00;9.48;;;4.68;;
15271;SDS011;7737;51.578;7.268;2023-07-31T05:26:28;8.73;;;3.83;;
15271;SDS011;7737;51.578;7.268;2023-07-31T05:28:54;10.05;;;4.90;;
15271;SDS011;7737;51.578;7.268;2023-07-31T05:31:21;12.85;;;4.63;;
15271;SDS011;7737;51.578;7.268;2023-07-31T05:33:49;8.18;;;4.63;;
15271;SDS011;7737;51.578;7.268;2023-07-31T05:36:16;10.10;;;4.70;;
15271;SDS011;7737;51.578;7.268;2023-07-31T05:38:42;10.55;;;4.57;;
15271;SDS011;7737;51.578;7.268;2023-07-31T05:41:10;7.68;;;4.47;;
15271;SDS011;7737;51.578;7.268;2023-07-31T05:43:38;9.85;;;5.00;;
15271;SDS011;7737;51.578;7.268;2023-07-31T05:46:05;11.30;;;5.07;;
15271;SDS011;7737;51.578;7.268;2023-07-31T05:48:34;8.45;;;4.30;;
15271;SDS011;7737;51.578;7.268;2023-07-31T05:51:01;9.60;;;4.90;;
15271;SDS011;7737;51.578;7.268;2023-07-31T05:53:27;8.43;;;4.82;;
15271;SDS011;7737;51.578;7.268;2023-07-31T05:55:54;11.88;;;5.20;;
15271;SDS011;7737;51.578;7.268;2023-07-31T05:58:21;13.15;;;5.30;;
15271;SDS011;7737;51.578;7.268;2023-07-31T06:00:49;9.20;;;4.78;;
15271;SDS011;7737;51.578;7.268;2023-07-31T06:03:15;9.93;;;5.20;;
15271;SDS011;7737;51.578;7.268;2023-07-31T06:05:42;9.63;;;5.35;;
15271;SDS011;7737;51.578;7.268;2023-07-31T06:08:09;10.52;;;5.50;;
15271;SDS011;7737;51.578;7.268;2023-07-31T06:10:35;12.20;;;5.40;;
15271;SDS011;7737;51.578;7.268;2023-07-31T06:13:02;9.32;;;4.63;;
15271;SDS011;7737;51.578;7.268;2023-07-31T06:15:29;9.13;;;4.93;;
15271;SDS011;7737;51.578;7.268;2023-07-31T06:17:56;9.45;;;5.05;;
15271;SDS011;7737;51.578;7.268;2023-07-31T06:20:24;9.70;;;4.90;;
15271;SDS011;7737;51.578;7.268;2023-07-31T06:22:50;7.68;;;4.88;;
15271;SDS011;7737;51.578;7.268;2023-07-31T06:25:17;7.85;;;4.88;;
15271;SDS011;7737;51.578;7.268;2023-07-31T06:27:44;9.48;;;5.28;;
15271;SDS011;7737;51.578;7.268;2023-07-31T06:30:11;10.70;;;5.50;;
15271;SDS011;7737;51.578;7.268;2023-07-31T06:32:38;8.18;;;5.80;;
15271;SDS011;7737;51.578;7.268;2023-07-31T06:35:07;9.07;;;5.95;;
15271;SDS011;7737;51.578;7.268;2023-07-31T06:37:33;8.50;;;5.25;;
15271;SDS011;7737;51.578;7.268;2023-07-31T06:40:00;8.82;;;5.55;;
15271;SDS011;7737;51.578;7.268;2023-07-31T06:42:27;10.43;;;6.15;;
15271;SDS011;7737;51.578;7.268;2023-07-31T06:44:53;9.73;;;5.72;;
15271;SDS011;7737;51.578;7.268;2023-07-31T06:47:20;10.20;;;6.20;;
15271;SDS011;7737;51.578;7.268;2023-07-31T06:49:46;10.88;;;5.85;;
15271;SDS011;7737;51.578;7.268;2023-07-31T06:52:14;11.20;;;6.00;;
15271;SDS011;7737;51.578;7.268;2023-07-31T06:54:41;9.55;;;5.88;;
15271;SDS011;7737;51.578;7.268;2023-07-31T06:57:07;11.82;;;6.03;;
15271;SDS011;7737;51.578;7.268;2023-07-31T06:59:34;10.60;;;6.28;;
15271;SDS011;7737;51.578;7.268;2023-07-31T07:02:00;8.65;;;6.05;;
15271;SDS011;7737;51.578;7.268;2023-07-31T07:04:27;10.82;;;6.22;;
15271;SDS011;7737;51.578;7.268;2023-07-31T07:06:53;9.00;;;5.43;;
15271;SDS011;7737;51.578;7.268;2023-07-31T07:09:21;8.85;;;5.43;;
15271;SDS011;7737;51.578;7.268;2023-07-31T07:11:48;9.30;;;5.70;;
15271;SDS011;7737;51.578;7.268;2023-07-31T07:14:14;7.38;;;5.07;;
15271;SDS011;7737;51.578;7.268;2023-07-31T07:16:41;8.68;;;5.22;;
15271;SDS011;7737;51.578;7.268;2023-07-31T07:19:07;8.02;;;5.25;;
15271;SDS011;7737;51.578;7.268;2023-07-31T07:21:34;9.20;;;5.50;;
15271;SDS011;7737;51.578;7.268;2023-07-31T07:24:00;10.43;;;5.35;;
15271;SDS011;7737;51.578;7.268;2023-07-31T07:26:28;9.13;;;5.32;;
15271;SDS011;7737;51.578;7.268;2023-07-31T07:28:55;7.47;;;4.60;;
15271;SDS011;7737;51.578;7.268;2023-07-31T07:31:22;6.82;;;4.38;;
15271;SDS011;7737;51.578;7.268;2023-07-31T07:33:49;6.57;;;5.10;;
15271;SDS011;7737;51.578;7.268;2023-07-31T07:36:15;10.90;;;4.78;;
15271;SDS011;7737;51.578;7.268;2023-07-31T07:38:42;7.47;;;4.60;;
15271;SDS011;7737;51.578;7.268;2023-07-31T07:41:09;7.38;;;5.00;;
15271;SDS011;7737;51.578;7.268;2023-07-31T07:43:36;6.50;;;4.78;;
15271;SDS011;7737;51.578;7.268;2023-07-31T07:46:03;7.53;;;4.50;;
15271;SDS011;7737;51.578;7.268;2023-07-31T07:48:29;6.63;;;4.57;;
15271;SDS011;7737;51.578;7.268;2023-07-31T07:50:56;8.15;;;4.70;;
15271;SDS011;7737;51.578;7.268;2023-07-31T07:53:22;7.40;;;4.60;;
15271;SDS011;7737;51.578;7.268;2023-07-31T07:55:49;6.97;;;4.40;;
15271;SDS011;7737;51.578;7.268;2023-07-31T07:58:16;6.78;;;4.60;;
15271;SDS011;7737;51.578;7.268;2023-07-31T08:00:48;5.97;;;4.63;;
15271;SDS011;7737;51.578;7.268;2023-07-31T08:03:16;5.53;;;3.85;;
15271;SDS011;7737;51.578;7.268;2023-07-31T08:05:43;4.97;;;4.00;;
15271;SDS011;7737;51.578;7.268;2023-07-31T08:08:13;5.47;;;3.92;;
15271;SDS011;7737;51.578;7.268;2023-07-31T08:10:40;5.72;;;3.88;;
15271;SDS011;7737;51.578;7.268;2023-07-31T08:13:06;6.10;;;4.40;;
15271;SDS011;7737;51.578;7.268;2023-07-31T08:15:33;6.63;;;4.28;;
15271;SDS011;7737;51.578;7.268;2023-07-31T08:18:01;7.10;;;4.95;;
15271;SDS011;7737;51.578;7.268;2023-07-31T08:20:27;6.10;;;4.20;;
15271;SDS011;7737;51.578;7.268;2023-07-31T08:22:54;6.45;;;5.07;;
15271;SDS011;7737;51.578;7.268;2023-07-31T08:25:20;6.35;;;4.68;;
15271;SDS011;7737;51.578;7.268;2023-07-31T08:27:47;4.85;;;3.78;;
15271;SDS011;7737;51.578;7.268;2023-07-31T08:30:13;5.95;;;3.90;;
15271;SDS011;7737;51.578;7.268;2023-07-31T08:32:40;4.28;;;3.38;;
15271;SDS011;7737;51.578;7.268;2023-07-31T08:35:08;4.57;;;3.53;;
15271;SDS011;7737;51.578;7.268;2023-07-31T08:37:35;5.10;;;3.47;;
15271;SDS011;7737;51.578;7.268;2023-07-31T08:40:02;6.35;;;4.15;;
15271;SDS011;7737;51.578;7.268;2023-07-31T08:42:29;5.57;;;3.90;;
15271;SDS011;7737;51.578;7.268;2023-07-31T08:44:55;5.50;;;3.75;;
15271;SDS011;7737;51.578;7.268;2023-07-31T08:47:22;5.88;;;2.90;;
15271;SDS011;7737;51.578;7.268;2023-07-31T08:49:50;6.20;;;3.30;;
15271;SDS011;7737;51.578;7.268;2023-07-31T08:52:20;4.20;;;2.67;;
15271;SDS011;7737;51.578;7.268;2023-07-31T08:54:46;5.05;;;2.70;;
15271;SDS011;7737;51.578;7.268;2023-07-31T08:57:13;6.00;;;3.30;;
15271;SDS011;7737;51.578;7.268;2023-07-31T08:59:40;4.00;;;3.08;;
15271;SDS011;7737;51.578;7.268;2023-07-31T09:02:09;3.67;;;2.88;;
15271;SDS011;7737;51.578;7.268;2023-07-31T09:04:36;3.90;;;3.17;;
15271;SDS011;7737;51.578;7.268;2023-07-31T09:07:03;4.47;;;2.90;;
15271;SDS011;7737;51.578;7.268;2023-07-31T09:09:32;4.05;;;2.95;;
15271;SDS011;7737;51.578;7.268;2023-07-31T09:11:59;4.80;;;3.00;;
15271;SDS011;7737;51.578;7.268;2023-07-31T09:14:26;3.92;;;2.88;;
15271;SDS011;7737;51.578;7.268;2023-07-31T09:16:54;3.95;;;3.10;;
15271;SDS011;7737;51.578;7.268;2023-07-31T09:19:25;4.60;;;2.90;;
15271;SDS011;7737;51.578;7.268;2023-07-31T09:21:52;6.43;;;3.08;;
15271;SDS011;7737;51.578;7.268;2023-07-31T09:24:24;4.80;;;2.97;;
15271;SDS011;7737;51.578;7.268;2023-07-31T09:26:54;4.65;;;2.45;;
15271;SDS011;7737;51.578;7.268;2023-07-31T09:29:22;3.63;;;2.45;;
15271;SDS011;7737;51.578;7.268;2023-07-31T09:31:50;3.80;;;3.00;;
15271;SDS011;7737;51.578;7.268;2023-07-31T09:34:17;5.03;;;2.80;;
15271;SDS011;7737;51.578;7.268;2023-07-31T09:36:44;6.03;;;2.95;;
15271;SDS011;7737;51.578;7.268;2023-07-31T09:39:12;3.25;;;2.30;;
15271;SDS011;7737;51.578;7.268;2023-07-31T09:41:41;2.90;;;2.42;;
15271;SDS011;7737;51.578;7.268;2023-07-31T09:44:10;2.65;;;2.05;;
15271;SDS011;7737;51.578;7.268;2023-07-31T09:46:37;2.25;;;1.95;;
15271;SDS011;7737;51.578;7.268;2023-07-31T09:49:04;2.92;;;2.05;;
15271;SDS011;7737;51.578;7.268;2023-07-31T09:51:32;3.28;;;1.90;;
15271;SDS011;7737;51.578;7.268;2023-07-31T09:54:03;3.60;;;2.10;;
15271;SDS011;7737;51.578;7.268;2023-07-31T09:56:30;3.25;;;2.15;;
15271;SDS011;7737;51.578;7.268;2023-07-31T09:58:59;4.03;;;2.00;;
15271;SDS011;7737;51.578;7.268;2023-07-31T10:01:27;4.47;;;2.30;;
15271;SDS011;7737;51.578;7.268;2023-07-31T10:03:54;3.72;;;2.20;;
15271;SDS011;7737;51.578;7.268;2023-07-31T10:06:21;2.00;;;1.80;;
15271;SDS011;7737;51.578;7.268;2023-07-31T10:08:49;2.47;;;2.05;;
15271;SDS011;7737;51.578;7.268;2023-07-31T10:11:17;2.03;;;1.75;;
15271;SDS011;7737;51.578;7.268;2023-07-31T10:13:45;2.47;;;2.17;;
15271;SDS011;7737;51.578;7.268;2023-07-31T10:16:12;2.53;;;1.77;;
15271;SDS011;7737;51.578;7.268;2023-07-31T10:18:43;3.88;;;2.10;;
15271;SDS011;7737;51.578;7.268;2023-07-31T10:21:11;2.63;;;2.08;;
15271;SDS011;7737;51.578;7.268;2023-07-31T10:23:38;2.53;;;1.88;;
15271;SDS011;7737;51.578;7.268;2023-07-31T10:26:05;2.83;;;2.28;;
15271;SDS011;7737;51.578;7.268;2023-07-31T10:28:34;2.22;;;1.85;;
15271;SDS011;7737;51.578;7.268;2023-07-31T10:31:02;2.67;;;1.95;;
15271;SDS011;7737;51.578;7.268;2023-07-31T10:33:30;2.40;;;1.75;;
15271;SDS011;7737;51.578;7.268;2023-07-31T10:38:41;2.38;;;1.80;;
15271;SDS011;7737;51.578;7.268;2023-07-31T10:41:08;3.03;;;2.03;;
15271;SDS011;7737;51.578;7.268;2023-07-31T10:43:35;1.88;;;1.75;;
15271;SDS011;7737;51.578;7.268;2023-07-31T10:46:06;2.55;;;1.73;;
15271;SDS011;7737;51.578;7.268;2023-07-31T10:48:33;1.92;;;1.70;;
15271;SDS011;7737;51.578;7.268;2023-07-31T10:51:02;2.53;;;1.77;;
15271;SDS011;7737;51.578;7.268;2023-07-31T10:53:36;2.03;;;1.80;;
15271;SDS011;7737;51.578;7.268;2023-07-31T10:56:03;2.85;;;2.00;;
15271;SDS011;7737;51.578;7.268;2023-07-31T10:58:31;3.97;;;2.15;;
15271;SDS011;7737;51.578;7.268;2023-07-31T11:00:59;4.35;;;2.20;;
15271;SDS011;7737;51.578;7.268;2023-07-31T11:03:40;3.45;;;2.40;;
15271;SDS011;7737;51.578;7.268;2023-07-31T11:06:08;3.17;;;2.40;;
15271;SDS011;7737;51.578;7.268;2023-07-31T11:08:41;2.88;;;2.40;;
15271;SDS011;7737;51.578;7.268;2023-07-31T11:11:09;3.65;;;2.75;;
15271;SDS011;7737;51.578;7.268;2023-07-31T11:13:40;3.75;;;3.15;;
15271;SDS011;7737;51.578;7.268;2023-07-31T11:16:08;3.05;;;2.63;;
15271;SDS011;7737;51.578;7.268;2023-07-31T11:18:35;4.18;;;2.90;;
15271;SDS011;7737;51.578;7.268;2023-07-31T11:21:04;4.65;;;3.40;;
15271;SDS011;7737;51.578;7.268;2023-07-31T11:23:30;3.97;;;3.25;;
15271;SDS011;7737;51.578;7.268;2023-07-31T11:26:00;6.05;;;3.50;;
15271;SDS011;7737;51.578;7.268;2023-07-31T11:28:30;4.43;;;3.17;;
15271;SDS011;7737;51.578;7.268;2023-07-31T11:30:57;4.90;;;3.15;;
15271;SDS011;7737;51.578;7.268;2023-07-31T11:33:24;4.22;;;3.50;;
15271;SDS011;7737;51.578;7.268;2023-07-31T11:35:50;5.00;;;3.13;;
15271;SDS011;7737;51.578;7.268;2023-07-31T11:38:23;4.45;;;3.10;;
15271;SDS011;7737;51.578;7.268;2023-07-31T11:40:51;4.93;;;3.30;;
15271;SDS011;7737;51.578;7.268;2023-07-31T11:43:20;5.30;;;3.78;;
15271;SDS011;7737;51.578;7.268;2023-07-31T11:45:47;5.40;;;3.50;;
15271;SDS011;7737;51.578;7.268;2023-07-31T11:48:18;4.97;;;3.10;;
15271;SDS011;7737;51.578;7.268;2023-07-31T11:50:47;5.00;;;3.30;;
15271;SDS011;7737;51.578;7.268;2023-07-31T11:53:16;6.07;;;3.50;;
15271;SDS011;7737;51.578;7.268;2023-07-31T11:55:45;4.18;;;3.03;;
15271;SDS011;7737;51.578;7.268;2023-07-31T11:58:12;5.78;;;3.40;;
15271;SDS011;7737;51.578;7.268;2023-07-31T12:00:42;5.50;;;3.28;;
15271;SDS011;7737;51.578;7.268;2023-07-31T12:03:09;6.10;;;3.10;;
15271;SDS011;7737;51.578;7.268;2023-07-31T12:05:36;6.05;;;3.08;;
15271;SDS011;7737;51.578;7.268;2023-07-31T12:08:05;4.53;;;2.92;;
15271;SDS011;7737;51.578;7.268;2023-07-31T12:10:35;4.60;;;3.17;;
15271;SDS011;7737;51.578;7.268;2023-07-31T12:13:02;3.78;;;3.25;;
15271;SDS011;7737;51.578;7.268;2023-07-31T12:15:37;5.20;;;3.00;;
15271;SDS011;7737;51.578;7.268;2023-07-31T12:18:06;3.78;;;2.55;;
15271;SDS011;7737;51.578;7.268;2023-07-31T12:20:34;3.97;;;2.88;;
15271;SDS011;7737;51.578;7.268;2023-07-31T12:23:02;4.63;;;2.78;;
15271;SDS011;7737;51.578;7.268;2023-07-31T12:25:29;4.82;;;3.10;;
15271;SDS011;7737;51.578;7.268;2023-07-31T12:27:57;4.70;;;2.88;;
15271;SDS011;7737;51.578;7.268;2023-07-31T12:30:28;5.47;;;2.88;;
15271;SDS011;7737;51.578;7.268;2023-07-31T12:32:55;3.28;;;2.97;;
15271;SDS011;7737;51.578;7.268;2023-07-31T12:35:23;3.70;;;2.70;;
15271;SDS011;7737;51.578;7.268;2023-07-31T12:37:49;4.03;;;2.80;;
15271;SDS011;7737;51.578;7.268;2023-07-31T12:40:16;3.17;;;2.33;;
15271;SDS011;7737;51.578;7.268;2023-07-31T12:42:43;2.80;;;2.28;;
15271;SDS011;7737;51.578;7.268;2023-07-31T12:45:09;4.00;;;2.40;;
15271;SDS011;7737;51.578;7.268;2023-07-31T12:47:36;4.85;;;2.65;;
15271;SDS011;7737;51.578;7.268;2023-07-31T12:50:03;3.15;;;2.28;;
15271;SDS011;7737;51.578;7.268;2023-07-31T12:52:31;4.50;;;2.78;;
15271;SDS011;7737;51.578;7.268;2023-07-31T12:54:58;3.97;;;2.47;;
15271;SDS011;7737;51.578;7.268;2023-07-31T12:57:25;3.00;;;2.60;;
15271;SDS011;7737;51.578;7.268;2023-07-31T12:59:51;3.53;;;2.40;;
15271;SDS011;7737;51.578;7.268;2023-07-31T13:02:18;3.97;;;2.50;;
15271;SDS011;7737;51.578;7.268;2023-07-31T13:04:45;3.88;;;2.78;;
15271;SDS011;7737;51.578;7.268;2023-07-31T13:07:11;2.97;;;2.67;;
15271;SDS011;7737;51.578;7.268;2023-07-31T13:09:39;2.60;;;2.20;;
15271;SDS011;7737;51.578;7.268;2023-07-31T13:12:06;3.67;;;2.60;;
15271;SDS011;7737;51.578;7.268;2023-07-31T13:14:33;2.88;;;2.58;;
15271;SDS011;7737;51.578;7.268;2023-07-31T13:17:00;3.28;;;2.45;;
15271;SDS011;7737;51.578;7.268;2023-07-31T13:19:26;3.17;;;2.38;;
15271;SDS011;7737;51.578;7.268;2023-07-31T13:21:53;4.68;;;2.45;;
15271;SDS011;7737;51.578;7.268;2023-07-31T13:24:19;3.60;;;2.47;;
15271;SDS011;7737;51.578;7.268;2023-07-31T13:26:47;2.45;;;2.08;;
15271;SDS011;7737;51.578;7.268;2023-07-31T13:29:14;2.90;;;1.98;;
15271;SDS011;7737;51.578;7.268;2023-07-31T13:31:41;3.13;;;2.30;;
15271;SDS011;7737;51.578;7.268;2023-07-31T13:34:07;2.53;;;1.98;;
15271;SDS011;7737;51.578;7.268;2023-07-31T13:36:34;3.15;;;2.10;;
15271;SDS011;7737;51.578;7.268;2023-07-31T13:39:02;3.05;;;2.03;;
15271;SDS011;7737;51.578;7.268;2023-07-31T13:41:28;8.38;;;2.65;;
15271;SDS011;7737;51.578;7.268;2023-07-31T13:43:56;3.47;;;2.20;;
15271;SDS011;7737;51.578;7.268;2023-07-31T13:46:23;2.40;;;2.20;;
15271;SDS011;7737;51.578;7.268;2023-07-31T13:48:50;2.25;;;1.98;;
15271;SDS011;7737;51.578;7.268;2023-07-31T13:51:19;2.78;;;2.20;;
15271;SDS011;7737;51.578;7.268;2023-07-31T13:53:46;3.28;;;1.98;;
15271;SDS011;7737;51.578;7.268;2023-07-31T13:56:13;3.22;;;2.15;;
15271;SDS011;7737;51.578;7.268;2023-07-31T13:58:39;2.47;;;2.17;;
15271;SDS011;7737;51.578;7.268;2023-07-31T14:01:07;3.17;;;2.58;;
15271;SDS011;7737;51.578;7.268;2023-07-31T14:03:34;2.50;;;2.30;;
15271;SDS011;7737;51.578;7.268;2023-07-31T14:06:00;3.17;;;2.50;;
15271;SDS011;7737;51.578;7.268;2023-07-31T14:08:27;4.35;;;2.60;;
15271;SDS011;7737;51.578;7.268;2023-07-31T14:10:54;3.13;;;2.47;;
15271;SDS011;7737;51.578;7.268;2023-07-31T14:13:21;4.43;;;2.88;;
15271;SDS011;7737;51.578;7.268;2023-07-31T14:15:47;3.80;;;2.55;;
15271;SDS011;7737;51.578;7.268;2023-07-31T14:18:15;3.25;;;2.78;;
15271;SDS011;7737;51.578;7.268;2023-07-31T14:20:42;3.95;;;2.80;;
15271;SDS011;7737;51.578;7.268;2023-07-31T14:23:08;2.88;;;2.67;;
15271;SDS011;7737;51.578;7.268;2023-07-31T14:25:35;3.70;;;2.97;;
15271;SDS011;7737;51.578;7.268;2023-07-31T14:28:01;4.60;;;2.90;;
15271;SDS011;7737;51.578;7.268;2023-07-31T14:30:28;3.42;;;2.97;;
15271;SDS011;7737;51.578;7.268;2023-07-31T14:32:55;4.07;;;2.53;;
15271;SDS011;7737;51.578;7.268;2023-07-31T14:35:23;3.83;;;2.55;;
15271;SDS011;7737;51.578;7.268;2023-07-31T14:37:49;4.55;;;2.92;;
15271;SDS011;7737;51.578;7.268;2023-07-31T14:40:16;3.47;;;2.75;;
15271;SDS011;7737;51.578;7.268;2023-07-31T14:42:42;5.43;;;2.90;;
15271;SDS011;7737;51.578;7.268;2023-07-31T14:45:09;3.13;;;2.80;;
15271;SDS011;7737;51.578;7.268;2023-07-31T14:47:36;3.67;;;2.83;;
15271;SDS011;7737;51.578;7.268;2023-07-31T14:50:03;3.85;;;2.97;;
15271;SDS011;7737;51.578;7.268;2023-07-31T14:52:32;4.50;;;3.35;;
15271;SDS011;7737;51.578;7.268;2023-07-31T14:54:58;3.45;;;3.15;;
15271;SDS011;7737;51.578;7.268;2023-07-31T14:57:25;4.15;;;2.92;;
15271;SDS011;7737;51.578;7.268;2023-07-31T14:59:52;4.53;;;3.38;;
15271;SDS011;7737;51.578;7.268;2023-07-31T15:02:18;5.00;;;3.55;;